sensor_id;sensor_type;location;lat;lon;timestamp;P1;durP1;ratioP1;P2;durP2;ratioP2
18172;SDS011;9211;48.818;9.312;2023-11-19T00:01:26;2.83;;;1.83;;
18172;SDS011;9211;48.818;9.312;2023-11-19T00:03:53;3.65;;;1.92;;
18172;SDS011;9211;48.818;9.312;2023-11-19T00:06:20;2.38;;;1.50;;
18172;SDS011;9211;48.818;9.312;2023-11-19T00:08:47;1.70;;;1.00;;
18172;SDS011;9211;48.818;9.312;2023-11-19T00:11:15;3.72;;;1.23;;
18172;SDS011;9211;48.818;9.312;2023-11-19T00:13:42;3.05;;;1.20;;
18172;SDS011;9211;48.818;9.312;2023-11-19T00:16:10;2.00;;;1.10;;
18172;SDS011;9211;48.818;9.312;2023-11-19T00:18:37;3.05;;;1.20;;
18172;SDS011;9211;48.818;9.312;2023-11-19T00:21:04;2.75;;;1.27;;
18172;SDS011;9211;48.818;9.312;2023-11-19T00:23:33;2.35;;;1.38;;
18172;SDS011;9211;48.818;9.312;2023-11-19T00:26:00;3.05;;;1.40;;
18172;SDS011;9211;48.818;9.312;2023-11-19T00:28:27;2.90;;;1.50;;
18172;SDS011;9211;48.818;9.312;2023-11-19T00:30:54;2.92;;;1.23;;
18172;SDS011;9211;48.818;9.312;2023-11-19T00:33:23;1.80;;;1.20;;
18172;SDS011;9211;48.818;9.312;2023-11-19T00:35:50;3.30;;;1.50;;
18172;SDS011;9211;48.818;9.312;2023-11-19T00:38:17;2.70;;;1.37;;
18172;SDS011;9211;48.818;9.312;2023-11-19T00:40:44;3.33;;;1.50;;
18172;SDS011;9211;48.818;9.312;2023-11-19T00:43:11;2.13;;;1.23;;
18172;SDS011;9211;48.818;9.312;2023-11-19T00:45:38;2.00;;;1.40;;
18172;SDS011;9211;48.818;9.312;2023-11-19T00:48:05;2.88;;;1.27;;
18172;SDS011;9211;48.818;9.312;2023-11-19T00:50:34;2.37;;;1.50;;
18172;SDS011;9211;48.818;9.312;2023-11-19T00:53:01;2.80;;;1.70;;
18172;SDS011;9211;48.818;9.312;2023-11-19T00:55:28;3.40;;;1.20;;
18172;SDS011;9211;48.818;9.312;2023-11-19T00:57:55;3.15;;;1.50;;
18172;SDS011;9211;48.818;9.312;2023-11-19T01:00:23;2.75;;;1.30;;
18172;SDS011;9211;48.818;9.312;2023-11-19T01:02:52;2.50;;;1.40;;
18172;SDS011;9211;48.818;9.312;2023-11-19T01:05:19;3.58;;;1.42;;
18172;SDS011;9211;48.818;9.312;2023-11-19T01:07:49;2.42;;;1.40;;
18172;SDS011;9211;48.818;9.312;2023-11-19T01:10:18;2.22;;;1.50;;
18172;SDS011;9211;48.818;9.312;2023-11-19T01:12:45;2.70;;;1.40;;
18172;SDS011;9211;48.818;9.312;2023-11-19T01:15:12;2.08;;;1.30;;
18172;SDS011;9211;48.818;9.312;2023-11-19T01:17:39;2.22;;;1.20;;
18172;SDS011;9211;48.818;9.312;2023-11-19T01:20:06;1.63;;;0.85;;
18172;SDS011;9211;48.818;9.312;2023-11-19T01:22:37;1.70;;;1.00;;
18172;SDS011;9211;48.818;9.312;2023-11-19T01:25:08;1.80;;;0.90;;
18172;SDS011;9211;48.818;9.312;2023-11-19T01:27:35;2.30;;;0.90;;
18172;SDS011;9211;48.818;9.312;2023-11-19T01:30:02;1.63;;;0.90;;
18172;SDS011;9211;48.818;9.312;2023-11-19T01:32:29;1.63;;;0.90;;
18172;SDS011;9211;48.818;9.312;2023-11-19T01:34:56;2.25;;;0.90;;
18172;SDS011;9211;48.818;9.312;2023-11-19T01:37:23;2.00;;;1.00;;
18172;SDS011;9211;48.818;9.312;2023-11-19T01:39:50;1.60;;;0.98;;
18172;SDS011;9211;48.818;9.312;2023-11-19T01:42:18;1.45;;;0.88;;
18172;SDS011;9211;48.818;9.312;2023-11-19T01:44:54;1.80;;;0.95;;
18172;SDS011;9211;48.818;9.312;2023-11-19T01:47:23;1.17;;;0.70;;
18172;SDS011;9211;48.818;9.312;2023-11-19T01:49:51;2.38;;;0.90;;
18172;SDS011;9211;48.818;9.312;2023-11-19T01:52:18;2.17;;;0.70;;
18172;SDS011;9211;48.818;9.312;2023-11-19T01:54:46;2.17;;;0.90;;
18172;SDS011;9211;48.818;9.312;2023-11-19T01:57:14;1.45;;;0.80;;
18172;SDS011;9211;48.818;9.312;2023-11-19T01:59:43;2.22;;;0.82;;
18172;SDS011;9211;48.818;9.312;2023-11-19T02:02:11;1.03;;;0.80;;
18172;SDS011;9211;48.818;9.312;2023-11-19T02:04:38;1.63;;;0.98;;
18172;SDS011;9211;48.818;9.312;2023-11-19T02:07:06;1.63;;;0.90;;
18172;SDS011;9211;48.818;9.312;2023-11-19T02:09:34;1.10;;;0.80;;
18172;SDS011;9211;48.818;9.312;2023-11-19T02:12:01;2.55;;;0.90;;
18172;SDS011;9211;48.818;9.312;2023-11-19T02:14:28;1.75;;;1.00;;
18172;SDS011;9211;48.818;9.312;2023-11-19T02:16:57;1.88;;;1.10;;
18172;SDS011;9211;48.818;9.312;2023-11-19T02:19:24;2.00;;;1.35;;
18172;SDS011;9211;48.818;9.312;2023-11-19T02:21:51;4.10;;;1.35;;
18172;SDS011;9211;48.818;9.312;2023-11-19T02:24:18;2.20;;;1.38;;
18172;SDS011;9211;48.818;9.312;2023-11-19T02:26:51;4.40;;;1.50;;
18172;SDS011;9211;48.818;9.312;2023-11-19T02:29:26;2.40;;;1.50;;
18172;SDS011;9211;48.818;9.312;2023-11-19T02:31:53;3.95;;;1.63;;
18172;SDS011;9211;48.818;9.312;2023-11-19T02:34:21;4.50;;;1.60;;
18172;SDS011;9211;48.818;9.312;2023-11-19T02:36:48;3.58;;;1.80;;
18172;SDS011;9211;48.818;9.312;2023-11-19T02:39:15;3.83;;;1.75;;
18172;SDS011;9211;48.818;9.312;2023-11-19T02:41:46;3.17;;;1.60;;
18172;SDS011;9211;48.818;9.312;2023-11-19T02:44:16;2.72;;;1.83;;
18172;SDS011;9211;48.818;9.312;2023-11-19T02:46:44;3.33;;;1.50;;
18172;SDS011;9211;48.818;9.312;2023-11-19T02:49:13;3.05;;;1.70;;
18172;SDS011;9211;48.818;9.312;2023-11-19T02:51:40;3.50;;;1.50;;
18172;SDS011;9211;48.818;9.312;2023-11-19T02:54:07;4.00;;;1.80;;
18172;SDS011;9211;48.818;9.312;2023-11-19T02:56:35;5.35;;;1.63;;
18172;SDS011;9211;48.818;9.312;2023-11-19T02:59:04;3.38;;;1.73;;
18172;SDS011;9211;48.818;9.312;2023-11-19T03:01:40;3.78;;;1.85;;
18172;SDS011;9211;48.818;9.312;2023-11-19T03:04:10;2.95;;;1.63;;
18172;SDS011;9211;48.818;9.312;2023-11-19T03:06:42;3.80;;;1.80;;
18172;SDS011;9211;48.818;9.312;2023-11-19T03:09:09;4.18;;;1.90;;
18172;SDS011;9211;48.818;9.312;2023-11-19T03:11:36;2.50;;;1.80;;
18172;SDS011;9211;48.818;9.312;2023-11-19T03:14:03;4.32;;;2.00;;
18172;SDS011;9211;48.818;9.312;2023-11-19T03:16:30;3.15;;;1.90;;
18172;SDS011;9211;48.818;9.312;2023-11-19T03:18:57;3.45;;;1.90;;
18172;SDS011;9211;48.818;9.312;2023-11-19T03:21:28;4.28;;;1.90;;
18172;SDS011;9211;48.818;9.312;2023-11-19T03:23:56;4.13;;;2.13;;
18172;SDS011;9211;48.818;9.312;2023-11-19T03:26:25;3.47;;;2.20;;
18172;SDS011;9211;48.818;9.312;2023-11-19T03:28:53;3.25;;;1.90;;
18172;SDS011;9211;48.818;9.312;2023-11-19T03:31:22;3.15;;;2.00;;
18172;SDS011;9211;48.818;9.312;2023-11-19T03:33:50;4.47;;;1.95;;
18172;SDS011;9211;48.818;9.312;2023-11-19T03:36:17;3.72;;;2.20;;
18172;SDS011;9211;48.818;9.312;2023-11-19T03:38:48;2.75;;;2.00;;
18172;SDS011;9211;48.818;9.312;2023-11-19T03:41:15;3.05;;;1.90;;
18172;SDS011;9211;48.818;9.312;2023-11-19T03:43:43;3.65;;;2.10;;
18172;SDS011;9211;48.818;9.312;2023-11-19T03:46:19;2.67;;;1.98;;
18172;SDS011;9211;48.818;9.312;2023-11-19T03:48:46;3.97;;;1.93;;
18172;SDS011;9211;48.818;9.312;2023-11-19T03:51:13;3.13;;;1.88;;
18172;SDS011;9211;48.818;9.312;2023-11-19T03:53:41;4.30;;;1.80;;
18172;SDS011;9211;48.818;9.312;2023-11-19T03:56:10;3.05;;;1.70;;
18172;SDS011;9211;48.818;9.312;2023-11-19T03:58:37;3.20;;;1.90;;
18172;SDS011;9211;48.818;9.312;2023-11-19T04:01:04;2.87;;;1.70;;
18172;SDS011;9211;48.818;9.312;2023-11-19T04:03:32;3.83;;;1.70;;
18172;SDS011;9211;48.818;9.312;2023-11-19T04:05:58;2.58;;;1.40;;
18172;SDS011;9211;48.818;9.312;2023-11-19T04:08:25;2.00;;;1.20;;
18172;SDS011;9211;48.818;9.312;2023-11-19T04:10:52;2.15;;;1.10;;
18172;SDS011;9211;48.818;9.312;2023-11-19T04:13:21;1.67;;;1.15;;
18172;SDS011;9211;48.818;9.312;2023-11-19T04:15:49;2.63;;;1.30;;
18172;SDS011;9211;48.818;9.312;2023-11-19T04:18:16;2.35;;;1.40;;
18172;SDS011;9211;48.818;9.312;2023-11-19T04:20:43;3.13;;;1.52;;
18172;SDS011;9211;48.818;9.312;2023-11-19T04:23:10;2.70;;;1.10;;
18172;SDS011;9211;48.818;9.312;2023-11-19T04:25:37;1.70;;;1.00;;
18172;SDS011;9211;48.818;9.312;2023-11-19T04:28:04;2.50;;;1.10;;
18172;SDS011;9211;48.818;9.312;2023-11-19T04:30:32;2.78;;;1.20;;
18172;SDS011;9211;48.818;9.312;2023-11-19T04:33:00;1.98;;;1.17;;
18172;SDS011;9211;48.818;9.312;2023-11-19T04:35:27;3.28;;;1.40;;
18172;SDS011;9211;48.818;9.312;2023-11-19T04:37:54;1.90;;;1.27;;
18172;SDS011;9211;48.818;9.312;2023-11-19T04:40:22;2.08;;;1.40;;
18172;SDS011;9211;48.818;9.312;2023-11-19T04:42:49;2.05;;;1.40;;
18172;SDS011;9211;48.818;9.312;2023-11-19T04:45:16;2.90;;;1.50;;
18172;SDS011;9211;48.818;9.312;2023-11-19T04:47:44;2.10;;;1.00;;
18172;SDS011;9211;48.818;9.312;2023-11-19T04:50:11;1.40;;;0.50;;
18172;SDS011;9211;48.818;9.312;2023-11-19T04:52:38;0.30;;;0.20;;
18172;SDS011;9211;48.818;9.312;2023-11-19T04:55:07;1.15;;;0.28;;
18172;SDS011;9211;48.818;9.312;2023-11-19T04:57:36;1.08;;;0.22;;
18172;SDS011;9211;48.818;9.312;2023-11-19T05:00:04;2.88;;;0.20;;
18172;SDS011;9211;48.818;9.312;2023-11-19T05:02:32;0.77;;;0.25;;
18172;SDS011;9211;48.818;9.312;2023-11-19T05:05:01;0.28;;;0.20;;
18172;SDS011;9211;48.818;9.312;2023-11-19T05:07:29;0.60;;;0.30;;
18172;SDS011;9211;48.818;9.312;2023-11-19T05:09:56;0.35;;;0.20;;
18172;SDS011;9211;48.818;9.312;2023-11-19T05:12:23;0.95;;;0.20;;
18172;SDS011;9211;48.818;9.312;2023-11-19T05:14:51;0.70;;;0.10;;
18172;SDS011;9211;48.818;9.312;2023-11-19T05:17:17;0.10;;;0.10;;
18172;SDS011;9211;48.818;9.312;2023-11-19T05:19:45;0.20;;;0.20;;
18172;SDS011;9211;48.818;9.312;2023-11-19T05:22:14;0.50;;;0.20;;
18172;SDS011;9211;48.818;9.312;2023-11-19T05:24:41;0.50;;;0.20;;
18172;SDS011;9211;48.818;9.312;2023-11-19T05:27:08;0.55;;;0.20;;
18172;SDS011;9211;48.818;9.312;2023-11-19T05:29:36;0.60;;;0.20;;
18172;SDS011;9211;48.818;9.312;2023-11-19T05:32:04;0.20;;;0.20;;
18172;SDS011;9211;48.818;9.312;2023-11-19T05:34:32;0.40;;;0.20;;
18172;SDS011;9211;48.818;9.312;2023-11-19T05:36:59;1.60;;;0.20;;
18172;SDS011;9211;48.818;9.312;2023-11-19T05:39:28;0.15;;;0.10;;
18172;SDS011;9211;48.818;9.312;2023-11-19T05:41:55;0.68;;;0.20;;
18172;SDS011;9211;48.818;9.312;2023-11-19T05:44:22;0.50;;;0.20;;
18172;SDS011;9211;48.818;9.312;2023-11-19T05:46:48;0.20;;;0.13;;
18172;SDS011;9211;48.818;9.312;2023-11-19T05:49:15;0.13;;;0.13;;
18172;SDS011;9211;48.818;9.312;2023-11-19T05:51:42;0.28;;;0.20;;
18172;SDS011;9211;48.818;9.312;2023-11-19T05:54:09;0.60;;;0.20;;
18172;SDS011;9211;48.818;9.312;2023-11-19T05:56:38;0.40;;;0.20;;
18172;SDS011;9211;48.818;9.312;2023-11-19T05:59:04;0.35;;;0.20;;
18172;SDS011;9211;48.818;9.312;2023-11-19T06:01:39;0.70;;;0.30;;
18172;SDS011;9211;48.818;9.312;2023-11-19T06:04:07;0.40;;;0.25;;
18172;SDS011;9211;48.818;9.312;2023-11-19T06:06:35;0.63;;;0.30;;
18172;SDS011;9211;48.818;9.312;2023-11-19T06:09:02;0.30;;;0.20;;
18172;SDS011;9211;48.818;9.312;2023-11-19T06:11:31;1.40;;;0.10;;
18172;SDS011;9211;48.818;9.312;2023-11-19T06:14:00;0.80;;;0.20;;
18172;SDS011;9211;48.818;9.312;2023-11-19T06:16:27;0.30;;;0.20;;
18172;SDS011;9211;48.818;9.312;2023-11-19T06:18:54;0.40;;;0.28;;
18172;SDS011;9211;48.818;9.312;2023-11-19T06:21:21;2.50;;;0.20;;
18172;SDS011;9211;48.818;9.312;2023-11-19T06:23:48;0.43;;;0.20;;
18172;SDS011;9211;48.818;9.312;2023-11-19T06:26:16;0.20;;;0.20;;
18172;SDS011;9211;48.818;9.312;2023-11-19T06:28:43;0.40;;;0.20;;
18172;SDS011;9211;48.818;9.312;2023-11-19T06:31:13;1.20;;;0.30;;
18172;SDS011;9211;48.818;9.312;2023-11-19T06:33:41;0.38;;;0.20;;
18172;SDS011;9211;48.818;9.312;2023-11-19T06:36:08;0.52;;;0.22;;
18172;SDS011;9211;48.818;9.312;2023-11-19T06:38:35;0.70;;;0.20;;
18172;SDS011;9211;48.818;9.312;2023-11-19T06:41:05;0.90;;;0.20;;
18172;SDS011;9211;48.818;9.312;2023-11-19T06:43:34;0.70;;;0.20;;
18172;SDS011;9211;48.818;9.312;2023-11-19T06:46:01;0.40;;;0.20;;
18172;SDS011;9211;48.818;9.312;2023-11-19T06:48:32;0.30;;;0.22;;
18172;SDS011;9211;48.818;9.312;2023-11-19T06:50:59;1.27;;;0.38;;
18172;SDS011;9211;48.818;9.312;2023-11-19T06:53:26;0.85;;;0.20;;
18172;SDS011;9211;48.818;9.312;2023-11-19T06:55:54;0.73;;;0.20;;
18172;SDS011;9211;48.818;9.312;2023-11-19T06:58:22;0.33;;;0.30;;
18172;SDS011;9211;48.818;9.312;2023-11-19T07:00:49;1.10;;;0.30;;
18172;SDS011;9211;48.818;9.312;2023-11-19T07:03:16;0.80;;;0.20;;
18172;SDS011;9211;48.818;9.312;2023-11-19T07:05:44;0.60;;;0.20;;
18172;SDS011;9211;48.818;9.312;2023-11-19T07:08:11;0.65;;;0.20;;
18172;SDS011;9211;48.818;9.312;2023-11-19T07:10:38;0.40;;;0.20;;
18172;SDS011;9211;48.818;9.312;2023-11-19T07:13:05;0.80;;;0.30;;
18172;SDS011;9211;48.818;9.312;2023-11-19T07:15:32;0.40;;;0.20;;
18172;SDS011;9211;48.818;9.312;2023-11-19T07:17:59;0.80;;;0.20;;
18172;SDS011;9211;48.818;9.312;2023-11-19T07:20:26;0.55;;;0.20;;
18172;SDS011;9211;48.818;9.312;2023-11-19T07:22:54;0.80;;;0.30;;
18172;SDS011;9211;48.818;9.312;2023-11-19T07:25:22;1.48;;;0.30;;
18172;SDS011;9211;48.818;9.312;2023-11-19T07:27:49;1.20;;;0.20;;
18172;SDS011;9211;48.818;9.312;2023-11-19T07:30:17;0.97;;;0.30;;
18172;SDS011;9211;48.818;9.312;2023-11-19T07:32:44;1.35;;;0.30;;
18172;SDS011;9211;48.818;9.312;2023-11-19T07:35:11;1.20;;;0.20;;
18172;SDS011;9211;48.818;9.312;2023-11-19T07:37:38;1.90;;;0.20;;
18172;SDS011;9211;48.818;9.312;2023-11-19T07:40:07;0.57;;;0.20;;
18172;SDS011;9211;48.818;9.312;2023-11-19T07:42:36;1.25;;;0.20;;
18172;SDS011;9211;48.818;9.312;2023-11-19T07:45:03;2.90;;;0.30;;
18172;SDS011;9211;48.818;9.312;2023-11-19T07:47:32;0.30;;;0.25;;
18172;SDS011;9211;48.818;9.312;2023-11-19T07:49:59;1.00;;;0.30;;
18172;SDS011;9211;48.818;9.312;2023-11-19T07:52:26;1.60;;;0.20;;
18172;SDS011;9211;48.818;9.312;2023-11-19T07:54:54;1.55;;;0.30;;
18172;SDS011;9211;48.818;9.312;2023-11-19T07:57:22;1.17;;;0.30;;
18172;SDS011;9211;48.818;9.312;2023-11-19T07:59:52;1.93;;;0.30;;
18172;SDS011;9211;48.818;9.312;2023-11-19T08:02:19;0.20;;;0.20;;
18172;SDS011;9211;48.818;9.312;2023-11-19T08:04:47;1.38;;;0.30;;
18172;SDS011;9211;48.818;9.312;2023-11-19T08:07:17;1.35;;;0.30;;
18172;SDS011;9211;48.818;9.312;2023-11-19T08:09:44;0.77;;;0.40;;
18172;SDS011;9211;48.818;9.312;2023-11-19T08:12:10;1.70;;;0.25;;
18172;SDS011;9211;48.818;9.312;2023-11-19T08:14:41;1.35;;;0.28;;
18172;SDS011;9211;48.818;9.312;2023-11-19T08:17:09;0.20;;;0.20;;
18172;SDS011;9211;48.818;9.312;2023-11-19T08:19:36;1.80;;;0.40;;
18172;SDS011;9211;48.818;9.312;2023-11-19T08:22:03;1.10;;;0.30;;
18172;SDS011;9211;48.818;9.312;2023-11-19T08:24:30;2.00;;;0.40;;
18172;SDS011;9211;48.818;9.312;2023-11-19T08:26:56;1.33;;;0.20;;
18172;SDS011;9211;48.818;9.312;2023-11-19T08:29:23;0.90;;;0.30;;
18172;SDS011;9211;48.818;9.312;2023-11-19T08:31:52;3.90;;;0.30;;
18172;SDS011;9211;48.818;9.312;2023-11-19T08:34:19;1.60;;;0.30;;
18172;SDS011;9211;48.818;9.312;2023-11-19T08:36:45;0.60;;;0.30;;
18172;SDS011;9211;48.818;9.312;2023-11-19T08:39:16;1.05;;;0.40;;
18172;SDS011;9211;48.818;9.312;2023-11-19T08:41:43;0.40;;;0.20;;
18172;SDS011;9211;48.818;9.312;2023-11-19T08:44:10;1.63;;;0.30;;
18172;SDS011;9211;48.818;9.312;2023-11-19T08:46:37;0.63;;;0.30;;
18172;SDS011;9211;48.818;9.312;2023-11-19T08:49:06;0.60;;;0.30;;
18172;SDS011;9211;48.818;9.312;2023-11-19T08:51:33;1.30;;;0.30;;
18172;SDS011;9211;48.818;9.312;2023-11-19T08:54:00;1.88;;;0.40;;
18172;SDS011;9211;48.818;9.312;2023-11-19T08:56:27;1.27;;;0.30;;
18172;SDS011;9211;48.818;9.312;2023-11-19T08:58:57;3.55;;;0.40;;
18172;SDS011;9211;48.818;9.312;2023-11-19T09:01:24;1.38;;;0.30;;
18172;SDS011;9211;48.818;9.312;2023-11-19T09:03:51;0.45;;;0.30;;
18172;SDS011;9211;48.818;9.312;2023-11-19T09:06:20;0.77;;;0.30;;
18172;SDS011;9211;48.818;9.312;2023-11-19T09:08:46;1.70;;;0.40;;
18172;SDS011;9211;48.818;9.312;2023-11-19T09:11:13;1.77;;;0.40;;
18172;SDS011;9211;48.818;9.312;2023-11-19T09:13:40;0.80;;;0.40;;
18172;SDS011;9211;48.818;9.312;2023-11-19T09:16:07;2.70;;;0.40;;
18172;SDS011;9211;48.818;9.312;2023-11-19T09:18:34;0.93;;;0.38;;
18172;SDS011;9211;48.818;9.312;2023-11-19T09:21:01;0.70;;;0.30;;
18172;SDS011;9211;48.818;9.312;2023-11-19T09:23:29;1.00;;;0.40;;
18172;SDS011;9211;48.818;9.312;2023-11-19T09:26:01;1.30;;;0.50;;
18172;SDS011;9211;48.818;9.312;2023-11-19T09:28:28;1.52;;;0.40;;
18172;SDS011;9211;48.818;9.312;2023-11-19T09:30:55;1.70;;;0.70;;
18172;SDS011;9211;48.818;9.312;2023-11-19T09:33:22;1.42;;;0.73;;
18172;SDS011;9211;48.818;9.312;2023-11-19T09:35:49;6.32;;;0.60;;
18172;SDS011;9211;48.818;9.312;2023-11-19T09:38:16;2.25;;;0.55;;
18172;SDS011;9211;48.818;9.312;2023-11-19T09:40:45;2.38;;;0.90;;
18172;SDS011;9211;48.818;9.312;2023-11-19T09:43:12;1.50;;;0.60;;
18172;SDS011;9211;48.818;9.312;2023-11-19T09:45:42;1.40;;;0.60;;
18172;SDS011;9211;48.818;9.312;2023-11-19T09:48:14;1.45;;;0.77;;
18172;SDS011;9211;48.818;9.312;2023-11-19T09:50:43;1.80;;;0.80;;
18172;SDS011;9211;48.818;9.312;2023-11-19T09:53:11;1.33;;;0.80;;
18172;SDS011;9211;48.818;9.312;2023-11-19T09:55:38;1.30;;;0.70;;
18172;SDS011;9211;48.818;9.312;2023-11-19T09:58:07;2.22;;;0.70;;
18172;SDS011;9211;48.818;9.312;2023-11-19T10:00:34;1.70;;;0.77;;
18172;SDS011;9211;48.818;9.312;2023-11-19T10:03:01;2.28;;;0.90;;
18172;SDS011;9211;48.818;9.312;2023-11-19T10:05:30;2.50;;;0.70;;
18172;SDS011;9211;48.818;9.312;2023-11-19T10:07:57;2.10;;;0.70;;
18172;SDS011;9211;48.818;9.312;2023-11-19T10:10:24;2.90;;;0.60;;
18172;SDS011;9211;48.818;9.312;2023-11-19T10:12:51;1.88;;;0.60;;
18172;SDS011;9211;48.818;9.312;2023-11-19T10:15:21;1.20;;;0.60;;
18172;SDS011;9211;48.818;9.312;2023-11-19T10:17:49;2.28;;;0.60;;
18172;SDS011;9211;48.818;9.312;2023-11-19T10:20:20;1.08;;;0.70;;
18172;SDS011;9211;48.818;9.312;2023-11-19T10:22:47;0.90;;;0.50;;
18172;SDS011;9211;48.818;9.312;2023-11-19T10:25:23;3.03;;;0.60;;
18172;SDS011;9211;48.818;9.312;2023-11-19T10:27:51;1.23;;;0.50;;
18172;SDS011;9211;48.818;9.312;2023-11-19T10:30:21;1.95;;;0.50;;
18172;SDS011;9211;48.818;9.312;2023-11-19T10:35:35;1.05;;;0.60;;
18172;SDS011;9211;48.818;9.312;2023-11-19T10:38:12;1.92;;;0.65;;
18172;SDS011;9211;48.818;9.312;2023-11-19T10:40:41;3.38;;;1.00;;
18172;SDS011;9211;48.818;9.312;2023-11-19T10:43:08;2.67;;;0.80;;
18172;SDS011;9211;48.818;9.312;2023-11-19T10:45:38;1.37;;;0.53;;
18172;SDS011;9211;48.818;9.312;2023-11-19T10:48:06;1.42;;;0.50;;
18172;SDS011;9211;48.818;9.312;2023-11-19T10:50:33;1.77;;;0.70;;
18172;SDS011;9211;48.818;9.312;2023-11-19T10:53:01;1.20;;;0.50;;
18172;SDS011;9211;48.818;9.312;2023-11-19T10:55:30;1.90;;;0.70;;
18172;SDS011;9211;48.818;9.312;2023-11-19T10:58:01;1.90;;;0.70;;
18172;SDS011;9211;48.818;9.312;2023-11-19T11:00:32;2.50;;;0.80;;
18172;SDS011;9211;48.818;9.312;2023-11-19T11:03:05;4.28;;;2.63;;
18172;SDS011;9211;48.818;9.312;2023-11-19T11:05:37;1.50;;;0.73;;
18172;SDS011;9211;48.818;9.312;2023-11-19T11:08:06;2.50;;;1.25;;
18172;SDS011;9211;48.818;9.312;2023-11-19T11:10:35;3.30;;;1.45;;
18172;SDS011;9211;48.818;9.312;2023-11-19T11:13:11;2.20;;;1.10;;
18172;SDS011;9211;48.818;9.312;2023-11-19T11:15:41;1.58;;;0.88;;
18172;SDS011;9211;48.818;9.312;2023-11-19T11:18:09;2.38;;;1.02;;
18172;SDS011;9211;48.818;9.312;2023-11-19T11:20:36;1.65;;;0.60;;
18172;SDS011;9211;48.818;9.312;2023-11-19T11:23:27;2.50;;;0.70;;
18172;SDS011;9211;48.818;9.312;2023-11-19T11:26:08;1.80;;;0.90;;
18172;SDS011;9211;48.818;9.312;2023-11-19T11:28:52;2.63;;;0.70;;
18172;SDS011;9211;48.818;9.312;2023-11-19T11:31:29;1.52;;;0.50;;
18172;SDS011;9211;48.818;9.312;2023-11-19T11:34:10;2.37;;;0.70;;
18172;SDS011;9211;48.818;9.312;2023-11-19T11:36:49;2.42;;;0.60;;
18172;SDS011;9211;48.818;9.312;2023-11-19T11:39:24;1.25;;;0.55;;
18172;SDS011;9211;48.818;9.312;2023-11-19T11:45:08;3.13;;;0.70;;
18172;SDS011;9211;48.818;9.312;2023-11-19T11:50:49;1.42;;;0.50;;
18172;SDS011;9211;48.818;9.312;2023-11-19T11:53:19;1.98;;;0.68;;
18172;SDS011;9211;48.818;9.312;2023-11-19T11:55:52;1.65;;;0.60;;
18172;SDS011;9211;48.818;9.312;2023-11-19T11:58:21;2.50;;;0.88;;
18172;SDS011;9211;48.818;9.312;2023-11-19T12:00:52;3.00;;;0.90;;
18172;SDS011;9211;48.818;9.312;2023-11-19T12:03:21;2.30;;;0.63;;
18172;SDS011;9211;48.818;9.312;2023-11-19T12:05:49;1.85;;;0.65;;
18172;SDS011;9211;48.818;9.312;2023-11-19T12:08:18;2.70;;;0.70;;
18172;SDS011;9211;48.818;9.312;2023-11-19T12:10:47;2.93;;;0.70;;
18172;SDS011;9211;48.818;9.312;2023-11-19T12:13:15;3.22;;;0.93;;
18172;SDS011;9211;48.818;9.312;2023-11-19T12:18:38;1.90;;;0.73;;
18172;SDS011;9211;48.818;9.312;2023-11-19T12:21:07;1.98;;;0.63;;
18172;SDS011;9211;48.818;9.312;2023-11-19T12:23:35;2.85;;;0.80;;
18172;SDS011;9211;48.818;9.312;2023-11-19T12:29:04;1.97;;;0.60;;
18172;SDS011;9211;48.818;9.312;2023-11-19T12:31:31;2.20;;;0.80;;
18172;SDS011;9211;48.818;9.312;2023-11-19T12:34:06;4.30;;;0.93;;
18172;SDS011;9211;48.818;9.312;2023-11-19T12:36:37;2.25;;;0.70;;
18172;SDS011;9211;48.818;9.312;2023-11-19T12:39:08;3.28;;;0.50;;
18172;SDS011;9211;48.818;9.312;2023-11-19T12:41:53;2.10;;;0.60;;
18172;SDS011;9211;48.818;9.312;2023-11-19T12:44:21;2.08;;;0.50;;
18172;SDS011;9211;48.818;9.312;2023-11-19T12:47:01;1.88;;;0.75;;
18172;SDS011;9211;48.818;9.312;2023-11-19T12:49:31;2.78;;;0.60;;
18172;SDS011;9211;48.818;9.312;2023-11-19T12:51:58;1.60;;;0.57;;
18172;SDS011;9211;48.818;9.312;2023-11-19T12:54:31;2.75;;;0.68;;
18172;SDS011;9211;48.818;9.312;2023-11-19T12:57:00;2.60;;;0.50;;
18172;SDS011;9211;48.818;9.312;2023-11-19T12:59:27;2.20;;;0.70;;
18172;SDS011;9211;48.818;9.312;2023-11-19T13:01:54;1.65;;;0.55;;
18172;SDS011;9211;48.818;9.312;2023-11-19T13:04:21;1.40;;;0.50;;
18172;SDS011;9211;48.818;9.312;2023-11-19T13:06:50;1.80;;;0.50;;
18172;SDS011;9211;48.818;9.312;2023-11-19T13:09:24;1.77;;;0.60;;
18172;SDS011;9211;48.818;9.312;2023-11-19T13:11:52;4.00;;;0.60;;
18172;SDS011;9211;48.818;9.312;2023-11-19T13:14:19;3.67;;;0.57;;
18172;SDS011;9211;48.818;9.312;2023-11-19T13:16:46;2.10;;;0.60;;
18172;SDS011;9211;48.818;9.312;2023-11-19T13:19:14;2.75;;;0.70;;
18172;SDS011;9211;48.818;9.312;2023-11-19T13:21:44;1.45;;;0.47;;
18172;SDS011;9211;48.818;9.312;2023-11-19T13:24:13;2.50;;;0.60;;
18172;SDS011;9211;48.818;9.312;2023-11-19T13:26:40;2.60;;;0.80;;
18172;SDS011;9211;48.818;9.312;2023-11-19T13:29:08;2.28;;;0.52;;
18172;SDS011;9211;48.818;9.312;2023-11-19T13:31:36;3.85;;;0.50;;
18172;SDS011;9211;48.818;9.312;2023-11-19T13:34:03;1.38;;;0.40;;
18172;SDS011;9211;48.818;9.312;2023-11-19T13:36:32;2.25;;;0.50;;
18172;SDS011;9211;48.818;9.312;2023-11-19T13:38:59;3.20;;;0.60;;
18172;SDS011;9211;48.818;9.312;2023-11-19T13:41:28;2.92;;;0.70;;
18172;SDS011;9211;48.818;9.312;2023-11-19T13:43:54;1.90;;;0.50;;
18172;SDS011;9211;48.818;9.312;2023-11-19T13:46:21;2.67;;;0.70;;
18172;SDS011;9211;48.818;9.312;2023-11-19T13:48:48;1.70;;;0.60;;
18172;SDS011;9211;48.818;9.312;2023-11-19T13:51:15;1.83;;;0.80;;
18172;SDS011;9211;48.818;9.312;2023-11-19T13:53:42;2.45;;;0.68;;
18172;SDS011;9211;48.818;9.312;2023-11-19T13:56:09;2.70;;;0.50;;
18172;SDS011;9211;48.818;9.312;2023-11-19T13:58:38;2.85;;;0.60;;
18172;SDS011;9211;48.818;9.312;2023-11-19T14:01:05;4.15;;;0.80;;
18172;SDS011;9211;48.818;9.312;2023-11-19T14:03:33;1.73;;;0.60;;
18172;SDS011;9211;48.818;9.312;2023-11-19T14:06:00;2.80;;;0.60;;
18172;SDS011;9211;48.818;9.312;2023-11-19T14:08:27;2.00;;;0.55;;
18172;SDS011;9211;48.818;9.312;2023-11-19T14:10:54;2.40;;;0.65;;
18172;SDS011;9211;48.818;9.312;2023-11-19T14:13:22;1.98;;;0.70;;
18172;SDS011;9211;48.818;9.312;2023-11-19T14:15:50;1.48;;;0.50;;
18172;SDS011;9211;48.818;9.312;2023-11-19T14:18:17;2.05;;;0.60;;
18172;SDS011;9211;48.818;9.312;2023-11-19T14:20:44;2.10;;;0.70;;
18172;SDS011;9211;48.818;9.312;2023-11-19T14:23:11;2.72;;;0.70;;
18172;SDS011;9211;48.818;9.312;2023-11-19T14:25:38;2.23;;;0.50;;
18172;SDS011;9211;48.818;9.312;2023-11-19T14:28:05;2.20;;;0.60;;
18172;SDS011;9211;48.818;9.312;2023-11-19T14:30:32;1.60;;;0.60;;
18172;SDS011;9211;48.818;9.312;2023-11-19T14:33:01;1.33;;;0.50;;
18172;SDS011;9211;48.818;9.312;2023-11-19T14:35:30;2.42;;;0.50;;
18172;SDS011;9211;48.818;9.312;2023-11-19T14:37:57;1.42;;;0.52;;
18172;SDS011;9211;48.818;9.312;2023-11-19T14:40:25;1.75;;;0.60;;
18172;SDS011;9211;48.818;9.312;2023-11-19T14:42:52;0.90;;;0.40;;
18172;SDS011;9211;48.818;9.312;2023-11-19T14:45:19;2.60;;;0.60;;
18172;SDS011;9211;48.818;9.312;2023-11-19T14:47:48;3.15;;;0.80;;
18172;SDS011;9211;48.818;9.312;2023-11-19T14:50:16;2.00;;;0.50;;
18172;SDS011;9211;48.818;9.312;2023-11-19T14:52:43;1.38;;;0.50;;
18172;SDS011;9211;48.818;9.312;2023-11-19T14:55:10;2.95;;;0.65;;
18172;SDS011;9211;48.818;9.312;2023-11-19T14:57:37;2.00;;;0.70;;
18172;SDS011;9211;48.818;9.312;2023-11-19T15:00:07;2.88;;;0.60;;
18172;SDS011;9211;48.818;9.312;2023-11-19T15:02:38;2.00;;;0.70;;
18172;SDS011;9211;48.818;9.312;2023-11-19T15:05:07;3.42;;;0.77;;
18172;SDS011;9211;48.818;9.312;2023-11-19T15:07:37;2.63;;;0.80;;
18172;SDS011;9211;48.818;9.312;2023-11-19T15:10:05;1.65;;;0.70;;
18172;SDS011;9211;48.818;9.312;2023-11-19T15:12:35;1.92;;;0.80;;
18172;SDS011;9211;48.818;9.312;2023-11-19T15:15:06;2.17;;;0.63;;
18172;SDS011;9211;48.818;9.312;2023-11-19T15:17:34;3.45;;;0.70;;
18172;SDS011;9211;48.818;9.312;2023-11-19T15:20:02;2.57;;;0.60;;
18172;SDS011;9211;48.818;9.312;2023-11-19T15:22:29;2.20;;;0.70;;